createdAt,value
2023-03-29T00:00:27.707Z,40.80
2023-03-29T00:03:12.687Z,41.75
2023-03-29T00:05:42.465Z,43.49
2023-03-29T00:08:15.891Z,42.08
2023-03-29T00:10:49.904Z,42.45
2023-03-29T00:13:19.004Z,41.99
2023-03-29T00:15:47.211Z,42.43
2023-03-29T00:18:15.032Z,42.64
2023-03-29T00:20:44.085Z,42.10
2023-03-29T00:23:12.984Z,42.07
2023-03-29T00:25:45.274Z,41.84
2023-03-29T00:28:15.489Z,41.63
2023-03-29T00:30:43.559Z,42.26
2023-03-29T00:33:11.893Z,42.97
2023-03-29T00:35:43.039Z,43.79
2023-03-29T00:38:12.066Z,43.69
2023-03-29T00:40:49.726Z,43.71
2023-03-29T00:43:19.091Z,44.02
2023-03-29T00:45:48.314Z,45.08
2023-03-29T00:48:19.300Z,45.38
2023-03-29T00:50:55.977Z,43.49
2023-03-29T00:53:31.115Z,45.06
2023-03-29T00:56:08.188Z,44.67
2023-03-29T00:58:52.342Z,43.97
2023-03-29T01:01:28.825Z,43.66
2023-03-29T01:04:04.988Z,43.84
2023-03-29T01:06:36.536Z,44.29
2023-03-29T01:09:10.143Z,44.33
2023-03-29T01:11:47.491Z,45.99
2023-03-29T01:14:30.665Z,43.16
2023-03-29T01:16:59.764Z,42.42
2023-03-29T01:19:34.991Z,43.01
2023-03-29T01:22:26.364Z,44.48
2023-03-29T01:25:21.580Z,42.25
2023-03-29T01:28:01.229Z,42.81
2023-03-29T01:30:38.610Z,41.79
2023-03-29T01:33:32.580Z,42.42
2023-03-29T01:36:11.899Z,43.29
2023-03-29T01:38:52.919Z,42.10
2023-03-29T01:41:21.413Z,40.87
2023-03-29T01:43:57.022Z,42.53
2023-03-29T01:46:40.392Z,43.12
2023-03-29T01:49:13.777Z,42.64
2023-03-29T01:51:54.018Z,43.97
2023-03-29T01:54:32.856Z,42.74
2023-03-29T01:57:07.252Z,41.66
2023-03-29T01:59:42.691Z,42.01
2023-03-29T02:02:18.087Z,41.73
2023-03-29T02:04:58.338Z,42.42
2023-03-29T02:07:33.120Z,42.38
2023-03-29T02:10:02.979Z,42.52
2023-03-29T05:02:57.098Z,48.13
2023-03-29T05:05:38.000Z,47.79
2023-03-29T05:08:12.627Z,48.57
2023-03-29T05:11:16.935Z,49.43
2023-03-29T05:14:13.482Z,50.24
2023-03-29T05:19:41.538Z,47.88
2023-03-29T05:22:11.362Z,47.48
2023-03-29T05:24:39.376Z,47.90
2023-03-29T05:27:15.587Z,48.48
2023-03-29T05:29:49.939Z,48.27
2023-03-29T05:32:26.009Z,47.47
2023-03-29T05:34:56.586Z,46.09
2023-03-29T05:37:24.503Z,45.34
2023-03-29T05:40:05.582Z,44.49
2023-03-29T05:42:38.763Z,43.67
2023-03-29T05:45:10.665Z,44.56
2023-03-29T05:47:48.074Z,45.81
2023-03-29T05:50:15.915Z,45.65
2023-03-29T05:52:44.000Z,45.89
2023-03-29T05:55:12.643Z,45.53
2023-03-29T05:57:41.577Z,44.99
2023-03-29T06:00:25.879Z,45.95
2023-03-29T06:03:27.795Z,46.86
2023-03-29T06:06:02.738Z,46.86
2023-03-29T06:08:33.524Z,46.39
2023-03-29T06:11:22.992Z,45.72
2023-03-29T06:14:39.427Z,44.76
2023-03-29T06:17:28.166Z,45.14
2023-03-29T06:19:58.166Z,44.91
2023-03-29T06:22:33.209Z,46.90
2023-03-29T06:25:01.129Z,45.24
2023-03-29T06:31:42.516Z,44.54
2023-03-29T06:34:23.612Z,46.41
2023-03-29T06:37:01.653Z,47.92
2023-03-29T06:40:02.279Z,47.83
2023-03-29T06:42:42.694Z,48.23
2023-03-29T06:45:34.447Z,49.35
2023-03-29T06:48:21.156Z,51.11
2023-03-29T06:50:59.424Z,50.51
2023-03-29T06:53:32.877Z,49.77
2023-03-29T06:56:09.695Z,47.92
2023-03-29T07:01:38.331Z,47.07
2023-03-29T07:04:20.718Z,47.08
2023-03-29T07:07:20.723Z,46.89
2023-03-29T07:09:56.339Z,46.49
2023-03-29T07:12:24.895Z,46.56
2023-03-29T07:14:57.208Z,46.81
2023-03-29T07:17:34.897Z,45.44
2023-03-29T07:20:08.330Z,46.09
2023-03-29T07:22:47.644Z,45.97
2023-03-29T07:25:16.692Z,46.26
2023-03-29T07:28:09.718Z,46.88
2023-03-29T07:30:40.976Z,45.73
2023-03-29T07:33:18.538Z,45.04
2023-03-29T07:35:58.393Z,45.51
2023-03-29T07:38:30.192Z,45.15
2023-03-29T07:41:12.719Z,44.59
2023-03-29T07:43:42.290Z,45.04
2023-03-29T07:46:24.222Z,44.46
2023-03-29T07:48:57.538Z,44.19
2023-03-29T07:51:47.791Z,43.97
2023-03-29T07:54:43.210Z,44.40
2023-03-29T07:57:59.540Z,42.46
2023-03-29T08:00:32.787Z,42.74
2023-03-29T15:34:18.800Z,43.88
2023-03-29T15:37:02.747Z,44.30
2023-03-29T15:40:13.893Z,44.69
2023-03-29T15:55:16.032Z,46.06
2023-03-29T16:04:10.852Z,47.60
2023-03-29T16:06:39.234Z,47.47
2023-03-29T16:09:12.422Z,47.42
2023-03-29T16:11:44.344Z,47.64
2023-03-29T16:14:31.074Z,47.81
2023-03-29T16:17:17.941Z,47.07
2023-03-29T16:20:07.560Z,46.89
2023-03-29T16:22:43.508Z,47.21
2023-03-29T16:26:04.949Z,46.77
2023-03-29T17:27:52.961Z,51.30
2023-03-29T17:54:57.498Z,53.88
2023-03-29T18:24:59.264Z,55.20
2023-03-29T18:39:08.878Z,55.79
2023-03-29T18:45:37.011Z,55.85
2023-03-29T18:53:32.962Z,55.77
2023-03-29T19:00:27.573Z,57.37
2023-03-29T19:12:05.475Z,57.20
2023-03-29T19:15:03.360Z,55.87
2023-03-29T19:22:01.661Z,55.86
2023-03-29T19:24:40.947Z,55.21
2023-03-29T19:29:05.081Z,56.90
2023-03-29T19:33:44.574Z,56.72
2023-03-29T19:48:33.693Z,58.21
2023-03-29T19:57:10.284Z,57.67
2023-03-29T20:13:01.408Z,61.06
2023-03-29T20:17:27.705Z,61.17
2023-03-29T20:19:59.151Z,60.53
2023-03-29T20:27:04.925Z,60.04
2023-03-29T20:29:40.601Z,60.52
2023-03-29T20:32:09.787Z,59.88
2023-03-29T20:34:39.755Z,58.75
2023-03-29T20:37:25.230Z,57.97
2023-03-29T20:40:00.400Z,57.77
2023-03-29T20:42:37.126Z,58.38
2023-03-29T20:50:49.511Z,58.09
2023-03-29T20:58:12.005Z,59.31
2023-03-29T21:00:45.626Z,60.27
2023-03-29T21:03:16.921Z,61.27
2023-03-29T21:05:53.253Z,60.74
2023-03-29T21:16:50.447Z,61.81
2023-03-29T21:24:43.076Z,60.90
2023-03-29T21:32:13.914Z,61.03
2023-03-29T21:34:48.494Z,61.85
2023-03-29T21:37:17.866Z,60.26
2023-03-29T21:39:51.149Z,61.42
2023-03-29T21:43:09.513Z,59.87
2023-03-29T21:45:45.162Z,60.14
2023-03-29T21:48:18.846Z,60.08
2023-03-29T21:52:08.841Z,60.10
2023-03-29T21:54:13.260Z,60.88
2023-03-29T21:56:47.511Z,61.06
2023-03-29T22:17:40.410Z,61.88
2023-03-29T22:20:21.660Z,62.79
2023-03-29T22:22:51.205Z,61.87
2023-03-29T22:26:11.838Z,61.91
2023-03-29T22:38:59.416Z,62.67
2023-03-29T22:45:59.979Z,62.94
2023-03-29T22:48:27.982Z,62.85
2023-03-29T22:51:00.189Z,61.49
2023-03-29T22:58:06.440Z,63.51
2023-03-29T23:04:42.413Z,63.19
2023-03-29T23:07:10.148Z,65.28
2023-03-29T23:09:38.183Z,64.72
2023-03-29T23:12:07.205Z,64.76
2023-03-29T23:14:35.644Z,65.39
2023-03-29T23:17:03.509Z,64.58
2023-03-29T23:19:31.765Z,65.21
2023-03-29T23:21:59.443Z,64.38
2023-03-29T23:24:30.896Z,65.12
2023-03-29T23:26:58.579Z,66.30
2023-03-29T23:29:26.532Z,65.56
2023-03-29T23:31:56.946Z,65.79
2023-03-29T23:34:25.393Z,66.52
2023-03-29T23:36:53.108Z,65.26
2023-03-29T23:39:20.941Z,64.99
2023-03-29T23:41:49.058Z,65.22
2023-03-29T23:44:17.141Z,64.62
2023-03-29T23:46:44.952Z,66.29
2023-03-29T23:49:12.951Z,66.68
2023-03-29T23:51:42.956Z,66.29
2023-03-29T23:54:13.038Z,65.51
